sensor_id;sensor_type;location;lat;lon;timestamp;pressure;altitude;pressure_sealevel;temperature;humidity
69223;BME280;56514;51.816;-0.026;2023-04-01T00:00:47;99244.22;;;10.48;85.92
69223;BME280;56514;51.816;-0.026;2023-04-01T00:03:33;99250.59;;;10.46;86.06
69223;BME280;56514;51.816;-0.026;2023-04-01T00:06:18;99254.38;;;10.43;86.71
69223;BME280;56514;51.816;-0.026;2023-04-01T00:09:06;99255.59;;;10.49;86.91
69223;BME280;56514;51.816;-0.026;2023-04-01T00:11:51;99260.72;;;10.50;86.21
69223;BME280;56514;51.816;-0.026;2023-04-01T00:14:36;99254.91;;;10.56;85.89
69223;BME280;56514;51.816;-0.026;2023-04-01T00:17:22;99263.78;;;10.46;85.93
69223;BME280;56514;51.816;-0.026;2023-04-01T00:20:08;99265.72;;;10.44;85.85
69223;BME280;56514;51.816;-0.026;2023-04-01T00:22:53;99278.09;;;10.43;85.85
69223;BME280;56514;51.816;-0.026;2023-04-01T00:25:39;99284.03;;;10.45;85.82
69223;BME280;56514;51.816;-0.026;2023-04-01T00:28:24;99282.38;;;10.54;84.96
69223;BME280;56514;51.816;-0.026;2023-04-01T00:31:10;99287.94;;;10.51;84.57
69223;BME280;56514;51.816;-0.026;2023-04-01T00:33:55;99287.78;;;10.43;85.22
69223;BME280;56514;51.816;-0.026;2023-04-01T00:36:41;99284.19;;;10.34;85.50
69223;BME280;56514;51.816;-0.026;2023-04-01T00:39:29;99295.84;;;10.41;84.89
69223;BME280;56514;51.816;-0.026;2023-04-01T00:42:14;99301.66;;;10.35;85.36
69223;BME280;56514;51.816;-0.026;2023-04-01T00:48:37;99301.63;;;10.26;86.09
69223;BME280;56514;51.816;-0.026;2023-04-01T00:51:25;99305.66;;;10.20;85.86
69223;BME280;56514;51.816;-0.026;2023-04-01T00:54:12;99308.56;;;10.17;86.12
69223;BME280;56514;51.816;-0.026;2023-04-01T00:59:48;99320.19;;;10.15;86.22
69223;BME280;56514;51.816;-0.026;2023-04-01T01:02:34;99318.81;;;10.11;86.53
69223;BME280;56514;51.816;-0.026;2023-04-01T01:05:30;99320.59;;;10.10;86.51
69223;BME280;56514;51.816;-0.026;2023-04-01T01:08:31;99322.28;;;10.11;86.32
69223;BME280;56514;51.816;-0.026;2023-04-01T01:11:54;99339.53;;;10.04;86.07
69223;BME280;56514;51.816;-0.026;2023-04-01T01:18:25;99341.19;;;9.96;86.62
69223;BME280;56514;51.816;-0.026;2023-04-01T01:24:08;99340.16;;;10.08;86.29
69223;BME280;56514;51.816;-0.026;2023-04-01T01:27:01;99342.66;;;10.09;85.81
69223;BME280;56514;51.816;-0.026;2023-04-01T01:33:12;99347.31;;;10.06;86.00
69223;BME280;56514;51.816;-0.026;2023-04-01T01:36:04;99353.69;;;10.03;85.98
69223;BME280;56514;51.816;-0.026;2023-04-01T01:38:51;99355.75;;;10.00;85.73
69223;BME280;56514;51.816;-0.026;2023-04-01T01:41:38;99354.66;;;10.02;85.66
69223;BME280;56514;51.816;-0.026;2023-04-01T01:44:26;99360.75;;;9.93;85.71
69223;BME280;56514;51.816;-0.026;2023-04-01T01:47:14;99366.16;;;10.01;85.67
69223;BME280;56514;51.816;-0.026;2023-04-01T01:50:01;99375.31;;;9.97;85.94
69223;BME280;56514;51.816;-0.026;2023-04-01T01:52:47;99375.13;;;9.89;85.63
69223;BME280;56514;51.816;-0.026;2023-04-01T01:55:35;99381.50;;;9.87;85.87
69223;BME280;56514;51.816;-0.026;2023-04-01T01:58:33;99387.47;;;9.89;85.89
69223;BME280;56514;51.816;-0.026;2023-04-01T02:01:28;99393.13;;;9.84;86.33
69223;BME280;56514;51.816;-0.026;2023-04-01T02:04:16;99395.88;;;9.83;86.25
69223;BME280;56514;51.816;-0.026;2023-04-01T02:07:10;99405.22;;;9.87;86.05
69223;BME280;56514;51.816;-0.026;2023-04-01T02:09:57;99406.41;;;9.83;86.14
69223;BME280;56514;51.816;-0.026;2023-04-01T02:12:45;99407.66;;;9.79;86.03
69223;BME280;56514;51.816;-0.026;2023-04-01T02:15:33;99418.19;;;9.79;86.30
69223;BME280;56514;51.816;-0.026;2023-04-01T02:18:22;99425.38;;;9.77;86.86
69223;BME280;56514;51.816;-0.026;2023-04-01T02:21:08;99427.34;;;9.84;86.58
69223;BME280;56514;51.816;-0.026;2023-04-01T02:23:56;99433.84;;;9.80;86.04
69223;BME280;56514;51.816;-0.026;2023-04-01T02:26:45;99430.63;;;9.77;86.44
69223;BME280;56514;51.816;-0.026;2023-04-01T02:29:31;99441.88;;;9.79;86.29
69223;BME280;56514;51.816;-0.026;2023-04-01T02:32:19;99428.72;;;9.79;85.99
69223;BME280;56514;51.816;-0.026;2023-04-01T02:35:07;99438.13;;;9.72;86.21
69223;BME280;56514;51.816;-0.026;2023-04-01T02:37:55;99440.03;;;9.70;86.46
69223;BME280;56514;51.816;-0.026;2023-04-01T02:40:45;99436.38;;;9.61;86.17
69223;BME280;56514;51.816;-0.026;2023-04-01T02:43:31;99451.22;;;9.62;86.61
69223;BME280;56514;51.816;-0.026;2023-04-01T02:46:16;99443.19;;;9.64;86.39
69223;BME280;56514;51.816;-0.026;2023-04-01T02:49:02;99455.00;;;9.69;86.62
69223;BME280;56514;51.816;-0.026;2023-04-01T02:51:47;99446.53;;;9.66;86.73
69223;BME280;56514;51.816;-0.026;2023-04-01T02:54:32;99451.41;;;9.70;86.59
69223;BME280;56514;51.816;-0.026;2023-04-01T02:57:17;99454.44;;;9.66;86.69
69223;BME280;56514;51.816;-0.026;2023-04-01T03:00:04;99459.69;;;9.66;86.62
69223;BME280;56514;51.816;-0.026;2023-04-01T03:02:49;99458.53;;;9.59;86.59
69223;BME280;56514;51.816;-0.026;2023-04-01T03:05:34;99468.41;;;9.66;86.49
69223;BME280;56514;51.816;-0.026;2023-04-01T03:08:19;99474.19;;;9.60;87.02
69223;BME280;56514;51.816;-0.026;2023-04-01T03:11:05;99477.41;;;9.64;86.96
69223;BME280;56514;51.816;-0.026;2023-04-01T03:13:50;99481.06;;;9.52;86.63
69223;BME280;56514;51.816;-0.026;2023-04-01T03:16:35;99480.47;;;9.48;86.69
69223;BME280;56514;51.816;-0.026;2023-04-01T03:19:20;99482.84;;;9.51;86.92
69223;BME280;56514;51.816;-0.026;2023-04-01T03:22:05;99491.34;;;9.55;86.85
69223;BME280;56514;51.816;-0.026;2023-04-01T03:24:50;99490.06;;;9.49;86.95
69223;BME280;56514;51.816;-0.026;2023-04-01T03:27:35;99501.41;;;9.50;87.36
69223;BME280;56514;51.816;-0.026;2023-04-01T03:30:20;99502.59;;;9.57;87.01
69223;BME280;56514;51.816;-0.026;2023-04-01T03:33:06;99500.00;;;9.46;87.10
69223;BME280;56514;51.816;-0.026;2023-04-01T03:35:51;99499.03;;;9.47;86.91
69223;BME280;56514;51.816;-0.026;2023-04-01T03:38:36;99502.84;;;9.54;86.84
69223;BME280;56514;51.816;-0.026;2023-04-01T03:41:22;99502.00;;;9.53;86.81
69223;BME280;56514;51.816;-0.026;2023-04-01T03:44:07;99496.88;;;9.52;87.22
69223;BME280;56514;51.816;-0.026;2023-04-01T03:46:52;99506.03;;;9.57;86.86
69223;BME280;56514;51.816;-0.026;2023-04-01T03:49:37;99510.50;;;9.57;86.58
69223;BME280;56514;51.816;-0.026;2023-04-01T03:52:22;99511.69;;;9.53;86.44
69223;BME280;56514;51.816;-0.026;2023-04-01T03:55:07;99509.78;;;9.55;87.10
69223;BME280;56514;51.816;-0.026;2023-04-01T03:57:52;99515.50;;;9.60;86.76
69223;BME280;56514;51.816;-0.026;2023-04-01T04:00:37;99518.13;;;9.60;86.68
69223;BME280;56514;51.816;-0.026;2023-04-01T04:03:22;99517.88;;;9.63;86.90
69223;BME280;56514;51.816;-0.026;2023-04-01T04:06:11;99523.69;;;9.66;86.28
69223;BME280;56514;51.816;-0.026;2023-04-01T04:08:56;99532.50;;;9.56;86.30
69223;BME280;56514;51.816;-0.026;2023-04-01T04:11:44;99539.69;;;9.54;86.45
69223;BME280;56514;51.816;-0.026;2023-04-01T04:14:29;99544.75;;;9.46;85.52
69223;BME280;56514;51.816;-0.026;2023-04-01T04:17:14;99554.09;;;9.39;86.57
69223;BME280;56514;51.816;-0.026;2023-04-01T04:20:00;99554.81;;;9.41;86.71
69223;BME280;56514;51.816;-0.026;2023-04-01T04:22:46;99549.66;;;9.39;86.14
69223;BME280;56514;51.816;-0.026;2023-04-01T04:25:31;99562.47;;;9.33;86.78
69223;BME280;56514;51.816;-0.026;2023-04-01T04:28:17;99574.44;;;9.37;86.39
69223;BME280;56514;51.816;-0.026;2023-04-01T04:31:06;99569.88;;;9.39;86.41
69223;BME280;56514;51.816;-0.026;2023-04-01T04:33:52;99560.09;;;9.30;86.77
69223;BME280;56514;51.816;-0.026;2023-04-01T04:36:38;99570.13;;;9.36;86.03
69223;BME280;56514;51.816;-0.026;2023-04-01T04:39:22;99570.56;;;9.20;86.01
69223;BME280;56514;51.816;-0.026;2023-04-01T04:42:08;99578.31;;;9.22;86.41
69223;BME280;56514;51.816;-0.026;2023-04-01T04:44:52;99581.16;;;9.30;85.97
69223;BME280;56514;51.816;-0.026;2023-04-01T04:47:38;99584.03;;;9.27;85.70
69223;BME280;56514;51.816;-0.026;2023-04-01T04:50:24;99587.88;;;9.23;85.58
69223;BME280;56514;51.816;-0.026;2023-04-01T04:53:11;99590.63;;;9.21;85.61
69223;BME280;56514;51.816;-0.026;2023-04-01T04:55:56;99586.41;;;9.30;85.21
69223;BME280;56514;51.816;-0.026;2023-04-01T04:58:41;99600.31;;;9.21;85.57
69223;BME280;56514;51.816;-0.026;2023-04-01T05:01:26;99603.66;;;9.23;85.28
69223;BME280;56514;51.816;-0.026;2023-04-01T05:04:12;99608.25;;;9.10;85.99
69223;BME280;56514;51.816;-0.026;2023-04-01T05:06:56;99613.59;;;9.08;86.46
69223;BME280;56514;51.816;-0.026;2023-04-01T05:09:41;99612.53;;;9.11;86.29
69223;BME280;56514;51.816;-0.026;2023-04-01T05:12:26;99608.81;;;9.13;86.40
69223;BME280;56514;51.816;-0.026;2023-04-01T05:15:11;99618.28;;;9.16;86.58
69223;BME280;56514;51.816;-0.026;2023-04-01T05:17:56;99609.91;;;9.22;86.42
69223;BME280;56514;51.816;-0.026;2023-04-01T05:20:52;99631.19;;;9.19;86.96
69223;BME280;56514;51.816;-0.026;2023-04-01T05:23:37;99630.09;;;9.21;86.70
69223;BME280;56514;51.816;-0.026;2023-04-01T05:26:22;99640.25;;;9.26;86.47
69223;BME280;56514;51.816;-0.026;2023-04-01T05:29:07;99636.16;;;9.33;86.93
69223;BME280;56514;51.816;-0.026;2023-04-01T05:31:52;99644.28;;;9.41;86.44
69223;BME280;56514;51.816;-0.026;2023-04-01T05:34:38;99642.38;;;9.43;86.50
69223;BME280;56514;51.816;-0.026;2023-04-01T05:37:23;99646.69;;;9.44;86.83
69223;BME280;56514;51.816;-0.026;2023-04-01T05:40:09;99644.28;;;9.41;86.76
69223;BME280;56514;51.816;-0.026;2023-04-01T05:42:54;99657.94;;;9.35;86.54
69223;BME280;56514;51.816;-0.026;2023-04-01T05:45:39;99659.97;;;9.31;86.45
69223;BME280;56514;51.816;-0.026;2023-04-01T05:48:24;99660.38;;;9.16;86.56
69223;BME280;56514;51.816;-0.026;2023-04-01T05:51:14;99673.66;;;9.14;86.99
69223;BME280;56514;51.816;-0.026;2023-04-01T05:53:59;99671.97;;;9.13;86.56
69223;BME280;56514;51.816;-0.026;2023-04-01T05:56:44;99674.00;;;8.99;86.62
69223;BME280;56514;51.816;-0.026;2023-04-01T05:59:29;99677.69;;;8.96;87.00
69223;BME280;56514;51.816;-0.026;2023-04-01T06:02:17;99688.56;;;8.91;87.12
69223;BME280;56514;51.816;-0.026;2023-04-01T06:05:22;99689.53;;;9.02;87.14
69223;BME280;56514;51.816;-0.026;2023-04-01T06:08:16;99690.25;;;9.04;86.87
69223;BME280;56514;51.816;-0.026;2023-04-01T06:29:40;99701.88;;;9.12;87.05
69223;BME280;56514;51.816;-0.026;2023-04-01T06:39:42;99718.97;;;8.96;87.35
69223;BME280;56514;51.816;-0.026;2023-04-01T06:43:21;99726.72;;;8.97;87.27
69223;BME280;56514;51.816;-0.026;2023-04-01T06:46:09;99723.25;;;8.97;87.70
69223;BME280;56514;51.816;-0.026;2023-04-01T06:49:10;99740.00;;;8.96;87.06
69223;BME280;56514;51.816;-0.026;2023-04-01T06:52:19;99746.44;;;8.91;87.62
69223;BME280;56514;51.816;-0.026;2023-04-01T06:57:56;99746.91;;;8.97;87.57
69223;BME280;56514;51.816;-0.026;2023-04-01T07:00:46;99749.56;;;8.97;87.12
69223;BME280;56514;51.816;-0.026;2023-04-01T07:03:38;99752.69;;;9.02;87.10
69223;BME280;56514;51.816;-0.026;2023-04-01T07:09:50;99759.47;;;9.04;86.86
69223;BME280;56514;51.816;-0.026;2023-04-01T07:12:59;99763.31;;;9.00;87.04
69223;BME280;56514;51.816;-0.026;2023-04-01T07:15:59;99769.28;;;9.13;86.96
69223;BME280;56514;51.816;-0.026;2023-04-01T07:19:06;99771.13;;;9.13;86.63
69223;BME280;56514;51.816;-0.026;2023-04-01T07:25:24;99778.28;;;9.11;86.96
69223;BME280;56514;51.816;-0.026;2023-04-01T07:28:16;99781.75;;;9.22;86.45
69223;BME280;56514;51.816;-0.026;2023-04-01T07:40:19;99803.28;;;9.27;86.15
69223;BME280;56514;51.816;-0.026;2023-04-01T07:46:05;99808.31;;;9.30;85.28
69223;BME280;56514;51.816;-0.026;2023-04-01T07:49:14;99815.72;;;9.25;86.34
69223;BME280;56514;51.816;-0.026;2023-04-01T07:55:55;99824.25;;;9.51;85.85
69223;BME280;56514;51.816;-0.026;2023-04-01T08:05:16;99838.72;;;9.67;86.00
69223;BME280;56514;51.816;-0.026;2023-04-01T08:12:25;99837.28;;;9.74;85.72
69223;BME280;56514;51.816;-0.026;2023-04-01T08:14:58;99838.81;;;9.88;85.33
69223;BME280;56514;51.816;-0.026;2023-04-01T08:20:59;99856.91;;;9.92;84.16
69223;BME280;56514;51.816;-0.026;2023-04-01T08:23:47;99859.06;;;9.87;84.64
69223;BME280;56514;51.816;-0.026;2023-04-01T08:26:40;99862.06;;;10.05;84.80
69223;BME280;56514;51.816;-0.026;2023-04-01T08:29:48;99861.94;;;10.06;84.17
69223;BME280;56514;51.816;-0.026;2023-04-01T08:32:37;99867.72;;;10.11;84.56
69223;BME280;56514;51.816;-0.026;2023-04-01T08:35:46;99856.44;;;10.09;84.25
69223;BME280;56514;51.816;-0.026;2023-04-01T08:38:42;99864.69;;;10.27;84.69
69223;BME280;56514;51.816;-0.026;2023-04-01T08:44:34;99866.84;;;10.96;83.27
69223;BME280;56514;51.816;-0.026;2023-04-01T09:02:26;99880.25;;;11.25;80.53
69223;BME280;56514;51.816;-0.026;2023-04-01T09:08:36;99899.88;;;11.11;80.59
69223;BME280;56514;51.816;-0.026;2023-04-01T09:15:42;99906.53;;;10.95;81.34
69223;BME280;56514;51.816;-0.026;2023-04-01T09:19:13;99912.16;;;10.70;80.73
69223;BME280;56514;51.816;-0.026;2023-04-01T09:40:55;99956.22;;;10.36;82.48
69223;BME280;56514;51.816;-0.026;2023-04-01T09:44:39;99947.47;;;10.46;82.17
69223;BME280;56514;51.816;-0.026;2023-04-01T10:09:20;99974.72;;;10.79;80.95
69223;BME280;56514;51.816;-0.026;2023-04-01T10:34:05;100026.63;;;10.01;81.83
69223;BME280;56514;51.816;-0.026;2023-04-01T10:39:38;100024.38;;;10.85;80.39
69223;BME280;56514;51.816;-0.026;2023-04-01T10:55:12;100049.78;;;11.39;76.87
69223;BME280;56514;51.816;-0.026;2023-04-01T11:26:20;100099.03;;;11.18;77.21
69223;BME280;56514;51.816;-0.026;2023-04-01T11:29:19;100104.09;;;10.99;76.27
69223;BME280;56514;51.816;-0.026;2023-04-01T11:50:26;100118.94;;;12.28;74.20
69223;BME280;56514;51.816;-0.026;2023-04-01T11:53:41;100127.56;;;12.09;73.19
69223;BME280;56514;51.816;-0.026;2023-04-01T11:56:49;100122.72;;;12.14;73.92
69223;BME280;56514;51.816;-0.026;2023-04-01T12:02:48;100139.03;;;12.61;72.78
69223;BME280;56514;51.816;-0.026;2023-04-01T12:06:08;100137.47;;;12.58;71.78
69223;BME280;56514;51.816;-0.026;2023-04-01T12:15:20;100159.47;;;12.17;72.17
69223;BME280;56514;51.816;-0.026;2023-04-01T12:18:24;100156.19;;;12.46;73.34
69223;BME280;56514;51.816;-0.026;2023-04-01T12:21:26;100158.72;;;12.68;71.99
69223;BME280;56514;51.816;-0.026;2023-04-01T12:24:45;100164.31;;;12.74;69.82
69223;BME280;56514;51.816;-0.026;2023-04-01T12:39:47;100189.00;;;12.02;71.54
69223;BME280;56514;51.816;-0.026;2023-04-01T12:42:48;100192.81;;;12.09;71.58
69223;BME280;56514;51.816;-0.026;2023-04-01T12:48:45;100199.56;;;12.33;70.68
69223;BME280;56514;51.816;-0.026;2023-04-01T12:51:49;100211.84;;;12.23;70.06
69223;BME280;56514;51.816;-0.026;2023-04-01T13:04:29;100217.72;;;12.27;70.91
69223;BME280;56514;51.816;-0.026;2023-04-01T13:07:36;100214.84;;;12.51;71.58
69223;BME280;56514;51.816;-0.026;2023-04-01T13:14:18;100222.50;;;12.33;69.35
69223;BME280;56514;51.816;-0.026;2023-04-01T13:17:22;100226.84;;;12.02;70.93
69223;BME280;56514;51.816;-0.026;2023-04-01T13:20:25;100229.31;;;12.15;71.92
69223;BME280;56514;51.816;-0.026;2023-04-01T13:26:33;100243.53;;;12.03;71.17
69223;BME280;56514;51.816;-0.026;2023-04-01T13:42:03;100262.78;;;12.05;71.53
69223;BME280;56514;51.816;-0.026;2023-04-01T13:44:41;100269.59;;;12.07;71.57
69223;BME280;56514;51.816;-0.026;2023-04-01T13:47:51;100271.50;;;12.16;71.17
69223;BME280;56514;51.816;-0.026;2023-04-01T13:54:02;100271.22;;;12.51;70.77
69223;BME280;56514;51.816;-0.026;2023-04-01T14:15:23;100311.41;;;12.13;69.82
69223;BME280;56514;51.816;-0.026;2023-04-01T14:18:19;100314.28;;;12.21;69.34
69223;BME280;56514;51.816;-0.026;2023-04-01T14:27:34;100319.97;;;12.49;69.77
69223;BME280;56514;51.816;-0.026;2023-04-01T14:45:55;100345.16;;;12.21;71.92
69223;BME280;56514;51.816;-0.026;2023-04-01T14:48:53;100351.28;;;12.32;69.07
69223;BME280;56514;51.816;-0.026;2023-04-01T14:51:41;100359.22;;;12.21;70.44
69223;BME280;56514;51.816;-0.026;2023-04-01T14:54:41;100358.66;;;12.07;70.09
69223;BME280;56514;51.816;-0.026;2023-04-01T14:57:30;100362.75;;;11.89;69.54
69223;BME280;56514;51.816;-0.026;2023-04-01T15:00:19;100370.31;;;12.04;70.66
69223;BME280;56514;51.816;-0.026;2023-04-01T15:03:22;100376.56;;;12.03;71.08
69223;BME280;56514;51.816;-0.026;2023-04-01T15:06:47;100379.94;;;11.72;69.31
69223;BME280;56514;51.816;-0.026;2023-04-01T15:10:09;100393.53;;;11.44;70.49
69223;BME280;56514;51.816;-0.026;2023-04-01T15:13:19;100399.31;;;11.49;72.29
69223;BME280;56514;51.816;-0.026;2023-04-01T15:16:27;100396.38;;;11.65;71.77
69223;BME280;56514;51.816;-0.026;2023-04-01T15:29:28;100411.94;;;11.11;72.82
69223;BME280;56514;51.816;-0.026;2023-04-01T16:04:43;100448.88;;;11.69;67.82
69223;BME280;56514;51.816;-0.026;2023-04-01T16:13:45;100467.59;;;11.66;67.73
69223;BME280;56514;51.816;-0.026;2023-04-01T16:16:44;100470.91;;;11.57;69.63
69223;BME280;56514;51.816;-0.026;2023-04-01T16:22:29;100477.16;;;11.56;69.32
69223;BME280;56514;51.816;-0.026;2023-04-01T16:25:52;100485.31;;;11.53;68.06
69223;BME280;56514;51.816;-0.026;2023-04-01T16:28:55;100490.28;;;11.34;69.78
69223;BME280;56514;51.816;-0.026;2023-04-01T16:31:55;100489.44;;;11.34;69.58
69223;BME280;56514;51.816;-0.026;2023-04-01T16:38:13;100499.53;;;11.05;69.73
69223;BME280;56514;51.816;-0.026;2023-04-01T16:41:20;100499.53;;;11.05;70.32
69223;BME280;56514;51.816;-0.026;2023-04-01T16:44:17;100510.63;;;10.98;71.60
69223;BME280;56514;51.816;-0.026;2023-04-01T16:47:11;100508.00;;;10.98;70.19
69223;BME280;56514;51.816;-0.026;2023-04-01T16:50:27;100517.31;;;10.91;71.41
69223;BME280;56514;51.816;-0.026;2023-04-01T16:53:35;100525.94;;;10.93;71.12
69223;BME280;56514;51.816;-0.026;2023-04-01T16:56:28;100528.94;;;10.88;72.14
69223;BME280;56514;51.816;-0.026;2023-04-01T17:02:42;100541.78;;;10.93;70.93
69223;BME280;56514;51.816;-0.026;2023-04-01T17:05:40;100537.69;;;10.89;71.72
69223;BME280;56514;51.816;-0.026;2023-04-01T17:22:18;100570.50;;;10.97;71.21
69223;BME280;56514;51.816;-0.026;2023-04-01T17:28:31;100579.38;;;10.84;71.70
69223;BME280;56514;51.816;-0.026;2023-04-01T17:34:52;100607.28;;;10.75;73.90
69223;BME280;56514;51.816;-0.026;2023-04-01T17:56:17;100648.94;;;9.81;80.32
69223;BME280;56514;51.816;-0.026;2023-04-01T17:59:28;100646.53;;;9.78;81.02
69223;BME280;56514;51.816;-0.026;2023-04-01T18:11:09;100681.59;;;9.78;81.58
69223;BME280;56514;51.816;-0.026;2023-04-01T18:17:27;100701.94;;;9.76;81.92
69223;BME280;56514;51.816;-0.026;2023-04-01T18:20:51;100708.53;;;9.69;82.01
69223;BME280;56514;51.816;-0.026;2023-04-01T18:23:44;100712.13;;;9.68;82.43
69223;BME280;56514;51.816;-0.026;2023-04-01T18:26:33;100717.28;;;9.70;82.72
69223;BME280;56514;51.816;-0.026;2023-04-01T18:29:35;100725.00;;;9.73;82.71
69223;BME280;56514;51.816;-0.026;2023-04-01T18:36:22;100742.78;;;9.69;82.46
69223;BME280;56514;51.816;-0.026;2023-04-01T18:39:41;100742.53;;;9.60;82.43
69223;BME280;56514;51.816;-0.026;2023-04-01T18:46:03;100755.69;;;9.60;82.52
69223;BME280;56514;51.816;-0.026;2023-04-01T18:52:41;100776.22;;;9.41;82.92
69223;BME280;56514;51.816;-0.026;2023-04-01T18:55:46;100780.63;;;9.40;83.28
69223;BME280;56514;51.816;-0.026;2023-04-01T18:58:50;100789.38;;;9.41;83.08
69223;BME280;56514;51.816;-0.026;2023-04-01T19:11:34;100813.44;;;9.21;83.08
69223;BME280;56514;51.816;-0.026;2023-04-01T19:21:47;100830.56;;;9.14;82.25
69223;BME280;56514;51.816;-0.026;2023-04-01T19:25:20;100842.28;;;9.08;82.06
69223;BME280;56514;51.816;-0.026;2023-04-01T19:31:27;100851.25;;;9.20;81.74
69223;BME280;56514;51.816;-0.026;2023-04-01T19:37:31;100857.81;;;9.13;81.96
69223;BME280;56514;51.816;-0.026;2023-04-01T19:40:58;100869.16;;;9.13;82.46
69223;BME280;56514;51.816;-0.026;2023-04-01T19:50:29;100881.00;;;9.06;81.86
69223;BME280;56514;51.816;-0.026;2023-04-01T19:53:22;100886.94;;;9.10;81.87
69223;BME280;56514;51.816;-0.026;2023-04-01T19:56:25;100892.03;;;9.13;81.04
69223;BME280;56514;51.816;-0.026;2023-04-01T19:59:38;100892.84;;;9.13;81.21
69223;BME280;56514;51.816;-0.026;2023-04-01T20:02:50;100902.56;;;9.13;81.21
69223;BME280;56514;51.816;-0.026;2023-04-01T20:06:14;100895.84;;;9.07;81.20
69223;BME280;56514;51.816;-0.026;2023-04-01T20:12:59;100917.84;;;9.06;80.63
69223;BME280;56514;51.816;-0.026;2023-04-01T20:16:06;100918.94;;;9.02;80.79
69223;BME280;56514;51.816;-0.026;2023-04-01T20:18:56;100916.59;;;8.98;80.73
69223;BME280;56514;51.816;-0.026;2023-04-01T20:21:47;100917.34;;;9.00;81.30
69223;BME280;56514;51.816;-0.026;2023-04-01T20:24:45;100925.84;;;9.05;80.66
69223;BME280;56514;51.816;-0.026;2023-04-01T20:27:38;100933.72;;;9.05;80.44
69223;BME280;56514;51.816;-0.026;2023-04-01T20:31:01;100947.41;;;8.96;80.42
69223;BME280;56514;51.816;-0.026;2023-04-01T20:34:13;100952.50;;;8.99;80.33
69223;BME280;56514;51.816;-0.026;2023-04-01T20:46:23;100975.41;;;8.97;80.63
69223;BME280;56514;51.816;-0.026;2023-04-01T20:52:45;100986.63;;;9.00;79.40
69223;BME280;56514;51.816;-0.026;2023-04-01T20:58:48;100998.84;;;8.85;80.04
69223;BME280;56514;51.816;-0.026;2023-04-01T21:05:36;101006.75;;;8.85;80.03
69223;BME280;56514;51.816;-0.026;2023-04-01T21:12:16;101025.06;;;8.87;80.33
69223;BME280;56514;51.816;-0.026;2023-04-01T21:25:26;101041.19;;;8.81;79.44
69223;BME280;56514;51.816;-0.026;2023-04-01T21:31:10;101054.94;;;8.86;80.19
69223;BME280;56514;51.816;-0.026;2023-04-01T21:53:33;101078.53;;;8.87;79.17
69223;BME280;56514;51.816;-0.026;2023-04-01T22:11:45;101108.38;;;8.55;81.23
69223;BME280;56514;51.816;-0.026;2023-04-01T22:17:58;101115.31;;;8.56;81.45
69223;BME280;56514;51.816;-0.026;2023-04-01T22:20:56;101119.25;;;8.65;80.81
69223;BME280;56514;51.816;-0.026;2023-04-01T22:23:58;101126.53;;;8.60;81.06
69223;BME280;56514;51.816;-0.026;2023-04-01T22:36:04;101144.31;;;8.55;81.50
69223;BME280;56514;51.816;-0.026;2023-04-01T22:48:20;101160.50;;;8.47;82.49
69223;BME280;56514;51.816;-0.026;2023-04-01T22:54:31;101171.50;;;8.38;82.48
69223;BME280;56514;51.816;-0.026;2023-04-01T22:57:41;101168.63;;;8.43;82.82
69223;BME280;56514;51.816;-0.026;2023-04-01T23:00:32;101175.53;;;8.45;82.87
69223;BME280;56514;51.816;-0.026;2023-04-01T23:03:41;101180.09;;;8.42;82.96
69223;BME280;56514;51.816;-0.026;2023-04-01T23:06:53;101191.00;;;8.34;83.56
69223;BME280;56514;51.816;-0.026;2023-04-01T23:10:05;101184.81;;;8.35;83.36
69223;BME280;56514;51.816;-0.026;2023-04-01T23:17:53;101205.63;;;8.21;83.34
69223;BME280;56514;51.816;-0.026;2023-04-01T23:24:30;101202.13;;;8.22;83.35
69223;BME280;56514;51.816;-0.026;2023-04-01T23:27:59;101206.72;;;8.17;83.75
69223;BME280;56514;51.816;-0.026;2023-04-01T23:31:39;101210.16;;;8.19;83.66
69223;BME280;56514;51.816;-0.026;2023-04-01T23:34:51;101216.47;;;8.15;83.68
69223;BME280;56514;51.816;-0.026;2023-04-01T23:38:01;101220.34;;;8.08;83.13
69223;BME280;56514;51.816;-0.026;2023-04-01T23:41:37;101229.31;;;8.04;83.73
69223;BME280;56514;51.816;-0.026;2023-04-01T23:44:48;101225.44;;;8.11;83.26
69223;BME280;56514;51.816;-0.026;2023-04-01T23:47:58;101235.66;;;8.17;83.33
69223;BME280;56514;51.816;-0.026;2023-04-01T23:51:29;101239.44;;;8.12;82.95
69223;BME280;56514;51.816;-0.026;2023-04-01T23:54:49;101242.66;;;8.17;83.61
